Time;durP1;ratioP1;P1;durP2;ratioP2;P2;SDS_P1;SDS_P2;PMS_P1;PMS_P2;Temp;Humidity;BMP_temperature;BMP_pressure;BME280_temperature;BME280_humidity;BME280_pressure;Samples;Min_cycle;Max_cycle;Signal;HPM_P1;HPM_P2
2022/06/03 00:01:50;;;;;;;4.00;2.63;;;14.10;99.90;;;;;;4929994;28;20918;-84
2022/06/03 00:04:53;;;;;;;4.17;2.80;;;14.10;99.90;;;;;;4985049;28;20410;-84
2022/06/03 00:07:31;;;;;;;3.40;2.80;;;14.10;99.90;;;;;;4984422;28;20448;-84
2022/06/03 00:10:13;;;;;;;4.40;3.03;;;14.10;99.90;;;;;;4984799;28;20468;-84
2022/06/03 00:12:51;;;;;;;4.23;2.93;;;14.10;99.90;;;;;;4967365;28;20422;-84
2022/06/03 00:15:38;;;;;;;4.57;2.80;;;14.10;99.90;;;;;;4980675;28;20501;-84
2022/06/03 00:18:50;;;;;;;4.07;3.20;;;14.00;99.90;;;;;;4975690;28;20446;-84
2022/06/03 00:21:40;;;;;;;4.80;3.07;;;14.00;99.90;;;;;;4959469;28;20480;-84
2022/06/03 00:24:27;;;;;;;3.87;2.90;;;14.00;99.90;;;;;;4976430;28;20469;-84
2022/06/03 00:27:29;;;;;;;5.10;3.40;;;13.90;99.90;;;;;;4976122;28;20959;-84
2022/06/03 00:30:22;;;;;;;3.23;2.80;;;14.00;99.90;;;;;;4959972;28;20565;-84
2022/06/03 00:33:26;;;;;;;4.00;3.03;;;13.90;99.90;;;;;;4976028;28;20858;-83
2022/06/03 00:36:09;;;;;;;4.93;3.87;;;13.70;99.90;;;;;;4959625;28;20410;-84
2022/06/03 00:39:12;;;;;;;4.93;3.57;;;13.60;99.90;;;;;;4975633;28;20540;-83
2022/06/03 00:41:51;;;;;;;4.77;3.60;;;13.40;99.90;;;;;;4975516;28;20421;-84
2022/06/03 00:44:41;;;;;;;5.90;3.60;;;13.30;99.90;;;;;;4975616;28;20422;-84
2022/06/03 00:47:37;;;;;;;5.23;4.00;;;13.30;99.90;;;;;;4975534;28;20437;-84
2022/06/03 00:50:30;;;;;;;5.57;4.47;;;13.30;99.90;;;;;;4959127;28;20487;-84
2022/06/03 00:53:14;;;;;;;4.70;3.73;;;13.20;99.90;;;;;;4975575;28;20426;-83
2022/06/03 00:56:08;;;;;;;6.10;4.10;;;13.20;99.90;;;;;;4959149;28;20410;-83
2022/06/03 00:58:52;;;;;;;5.27;3.87;;;13.20;99.90;;;;;;4975646;28;20438;-83
2022/06/03 01:01:24;;;;;;;6.50;4.50;;;13.00;99.90;;;;;;4959279;28;20789;-84
2022/06/03 01:04:15;;;;;;;5.13;3.97;;;13.00;99.90;;;;;;4975311;28;20430;-84
2022/06/03 01:06:57;;;;;;;6.77;4.50;;;13.00;99.90;;;;;;4975116;28;20426;-84
2022/06/03 01:09:38;;;;;;;4.30;3.87;;;13.00;99.90;;;;;;4975012;28;20461;-83
2022/06/03 01:12:28;;;;;;;4.77;3.47;;;13.00;99.90;;;;;;4975298;28;20422;-83
2022/06/03 01:15:20;;;;;;;5.30;4.30;;;13.00;99.90;;;;;;4973845;28;20430;-83
2022/06/03 01:18:44;;;;;;;5.67;3.90;;;13.00;99.90;;;;;;4971088;28;20445;-83
2022/06/03 01:21:21;;;;;;;4.60;3.77;;;13.10;99.90;;;;;;4922878;28;20444;-83
2022/06/03 01:24:05;;;;;;;6.83;3.77;;;13.00;99.90;;;;;;4959034;28;20420;-83
2022/06/03 01:27:00;;;;;;;4.80;3.70;;;13.00;99.90;;;;;;4974944;28;20429;-84
2022/06/03 01:29:44;;;;;;;5.20;4.23;;;13.00;99.90;;;;;;4974808;28;20473;-83
2022/06/03 01:32:39;;;;;;;6.03;4.53;;;13.00;99.90;;;;;;4974612;28;20775;-83
2022/06/03 01:35:20;;;;;;;4.50;4.10;;;12.90;99.90;;;;;;4958331;28;20450;-84
2022/06/03 01:37:48;;;;;;;5.20;4.00;;;12.80;99.90;;;;;;4974676;28;20995;-83
2022/06/03 01:40:51;;;;;;;6.77;4.37;;;12.90;99.90;;;;;;4974439;28;20425;-83
2022/06/03 01:43:23;;;;;;;5.20;4.70;;;12.80;99.90;;;;;;4991028;28;20619;-83
2022/06/03 01:46:23;;;;;;;4.93;4.00;;;12.90;99.90;;;;;;4977581;28;20424;-84
2022/06/03 01:48:56;;;;;;;6.53;4.37;;;12.70;99.90;;;;;;4972604;28;20465;-83
2022/06/03 01:51:36;;;;;;;5.63;3.90;;;12.70;99.90;;;;;;4977331;28;20427;-84
2022/06/03 01:54:21;;;;;;;5.40;3.93;;;12.70;99.90;;;;;;4977647;28;20510;-83
2022/06/03 01:57:05;;;;;;;6.67;4.57;;;12.60;99.90;;;;;;4977142;28;20424;-83
2022/06/03 02:00:00;;;;;;;4.33;3.47;;;12.60;99.90;;;;;;4977251;28;20424;-83
2022/06/03 02:02:36;;;;;;;6.23;4.93;;;12.50;99.90;;;;;;4977218;28;21008;-83
2022/06/03 02:05:46;;;;;;;5.47;4.03;;;12.40;99.90;;;;;;4974180;28;20431;-84
2022/06/03 02:08:20;;;;;;;5.33;3.97;;;12.40;99.90;;;;;;4915258;29;20484;-84
2022/06/03 02:10:57;;;;;;;6.77;4.80;;;12.40;99.90;;;;;;4915490;29;20428;-83
2022/06/03 02:13:51;;;;;;;4.80;3.90;;;12.40;99.90;;;;;;4950787;28;20440;-84
2022/06/03 02:16:48;;;;;;;4.03;3.40;;;12.30;99.90;;;;;;4973725;28;20428;-84
2022/06/03 02:19:29;;;;;;;4.70;3.43;;;12.30;99.90;;;;;;4973418;28;20437;-83
2022/06/03 02:22:33;;;;;;;5.70;4.47;;;12.20;99.90;;;;;;4973511;28;20409;-83
2022/06/03 02:25:26;;;;;;;4.57;4.10;;;12.10;99.90;;;;;;4943711;28;21060;-84
2022/06/03 02:28:18;;;;;;;5.37;3.80;;;12.10;99.90;;;;;;4973623;28;20438;-83
2022/06/03 02:31:11;;;;;;;4.20;3.30;;;12.10;99.90;;;;;;4973601;28;20437;-83
2022/06/03 02:33:49;;;;;;;5.83;4.60;;;12.10;99.90;;;;;;4973584;28;20789;-83
2022/06/03 02:36:36;;;;;;;5.37;4.00;;;12.00;99.90;;;;;;4973241;28;20417;-83
2022/06/03 02:39:36;;;;;;;4.13;3.73;;;11.90;99.90;;;;;;4973067;28;21168;-84
2022/06/03 02:42:20;;;;;;;5.03;3.70;;;12.00;99.90;;;;;;4973205;28;20517;-83
2022/06/03 02:45:08;;;;;;;5.50;3.63;;;11.90;99.90;;;;;;4973362;28;20434;-84
2022/06/03 02:47:55;;;;;;;5.83;3.97;;;11.80;99.90;;;;;;4973151;28;20452;-84
2022/06/03 02:50:28;;;;;;;5.03;3.70;;;11.80;99.90;;;;;;4973208;28;20457;-84
2022/06/03 02:53:10;;;;;;;5.20;3.77;;;11.70;99.90;;;;;;4973720;28;20417;-84
2022/06/03 02:56:13;;;;;;;5.83;4.57;;;11.70;99.90;;;;;;4979628;28;20447;-84
2022/06/03 02:58:45;;;;;;;8.30;4.53;;;11.50;99.90;;;;;;4980972;28;20495;-84
2022/06/03 03:01:23;;;;;;;4.90;4.20;;;11.60;99.90;;;;;;4980379;28;20438;-84
2022/06/03 03:04:43;;;;;;;5.33;4.20;;;11.60;99.90;;;;;;4979635;28;20480;-84
2022/06/03 03:07:21;;;;;;;5.27;4.00;;;11.70;99.90;;;;;;4920467;29;20447;-84
2022/06/03 03:10:08;;;;;;;5.20;4.50;;;11.70;99.90;;;;;;4972084;28;20461;-84
2022/06/03 03:12:59;;;;;;;5.33;3.80;;;11.70;99.90;;;;;;4978701;28;20869;-84
2022/06/03 03:15:34;;;;;;;5.03;3.90;;;11.70;99.90;;;;;;4979299;28;20437;-84
2022/06/03 03:18:28;;;;;;;5.77;4.40;;;11.70;99.90;;;;;;4977898;28;20445;-84
2022/06/03 03:21:18;;;;;;;4.53;4.10;;;11.80;99.90;;;;;;4978360;28;20434;-84
2022/06/03 03:23:44;;;;;;;6.07;4.43;;;11.70;99.90;;;;;;4978217;28;20413;-84
2022/06/03 03:26:35;;;;;;;5.93;4.40;;;11.70;99.90;;;;;;4977979;28;20433;-84
2022/06/03 03:29:19;;;;;;;5.47;3.93;;;11.70;99.90;;;;;;4977234;28;20214;-84
2022/06/03 03:31:48;;;;;;;7.83;4.10;;;11.70;99.90;;;;;;4977284;28;20428;-84
2022/06/03 03:35:01;;;;;;;4.87;3.60;;;11.80;99.90;;;;;;4976670;28;20925;-84
2022/06/03 03:37:59;;;;;;;5.50;4.23;;;11.80;99.90;;;;;;4969865;28;20446;-83
2022/06/03 03:40:44;;;;;;;5.00;3.77;;;11.80;99.90;;;;;;4970476;28;20418;-84
2022/06/03 03:43:49;;;;;;;5.70;4.43;;;11.70;99.90;;;;;;4976424;28;20937;-83
2022/06/03 03:46:36;;;;;;;6.13;3.97;;;11.80;99.90;;;;;;4975423;28;20426;-84
2022/06/03 03:49:51;;;;;;;5.80;4.80;;;11.90;99.90;;;;;;4975384;28;20988;-84
2022/06/03 03:52:52;;;;;;;5.43;4.03;;;11.90;99.90;;;;;;4916398;29;20560;-84
2022/06/03 03:55:55;;;;;;;8.97;5.27;;;11.80;99.90;;;;;;4974497;28;20423;-84
2022/06/03 03:58:51;;;;;;;5.33;4.23;;;11.90;99.90;;;;;;4974786;28;20508;-84
2022/06/03 04:01:35;;;;;;;4.90;4.40;;;12.00;99.90;;;;;;4974539;28;20443;-84
2022/06/03 04:04:23;;;;;;;5.53;4.17;;;12.10;99.90;;;;;;4974294;28;20406;-84
2022/06/03 04:07:07;;;;;;;5.53;4.70;;;12.10;99.90;;;;;;4974328;28;20413;-84
2022/06/03 04:09:39;;;;;;;5.73;4.50;;;12.20;99.90;;;;;;4974393;28;20460;-83
2022/06/03 04:12:23;;;;;;;5.50;4.60;;;12.20;99.90;;;;;;4974392;28;20408;-83
2022/06/03 04:15:26;;;;;;;5.77;4.30;;;12.30;99.90;;;;;;4973706;28;20410;-84
2022/06/03 04:18:29;;;;;;;6.70;4.37;;;12.30;99.90;;;;;;4973232;28;20441;-84
2022/06/03 04:21:23;;;;;;;7.40;4.60;;;12.40;99.90;;;;;;4973323;28;20460;-84
2022/06/03 04:24:25;;;;;;;5.80;4.67;;;12.50;99.90;;;;;;4973518;28;20409;-84
2022/06/03 04:27:22;;;;;;;5.03;4.00;;;12.60;99.90;;;;;;4973263;28;20917;-84
2022/06/03 04:30:25;;;;;;;6.03;3.80;;;12.60;99.90;;;;;;4972505;28;20465;-83
2022/06/03 04:33:24;;;;;;;5.40;4.33;;;12.70;99.90;;;;;;4972863;28;20425;-84
2022/06/03 04:36:06;;;;;;;5.67;4.27;;;12.80;99.90;;;;;;4972833;28;20425;-82
2022/06/03 04:38:59;;;;;;;6.03;4.30;;;12.90;99.90;;;;;;4972519;28;20979;-84
2022/06/03 04:42:07;;;;;;;5.17;3.70;;;12.90;99.90;;;;;;4972471;28;20425;-83
2022/06/03 04:45:12;;;;;;;5.70;4.33;;;13.00;99.90;;;;;;4972530;28;20428;-83
2022/06/03 04:48:02;;;;;;;4.77;4.00;;;13.10;99.90;;;;;;4943443;28;21169;-83
2022/06/03 04:50:46;;;;;;;5.47;4.23;;;13.20;99.90;;;;;;4975952;28;20453;-83
2022/06/03 04:53:30;;;;;;;5.00;3.87;;;13.30;99.90;;;;;;4975860;28;20493;-83
2022/06/03 04:56:05;;;;;;;6.13;4.30;;;13.40;99.90;;;;;;4975545;28;21016;-84
2022/06/03 04:58:48;;;;;;;6.60;4.77;;;13.50;99.90;;;;;;4975314;28;20450;-83
2022/06/03 05:01:23;;;;;;;7.80;4.27;;;13.60;99.90;;;;;;4975661;28;20960;-83
2022/06/03 05:04:26;;;;;;;8.50;4.80;;;13.70;99.90;;;;;;4975380;28;20410;-83
2022/06/03 05:06:55;;;;;;;4.70;3.90;;;13.80;99.90;;;;;;4975440;28;20421;-83
2022/06/03 05:09:48;;;;;;;7.20;4.80;;;13.90;99.90;;;;;;4975156;28;20473;-84
2022/06/03 05:12:38;;;;;;;6.63;4.40;;;14.00;99.90;;;;;;4975430;28;20512;-84
2022/06/03 05:15:16;;;;;;;5.20;4.50;;;14.20;99.90;;;;;;4975333;28;20414;-83
2022/06/03 05:17:57;;;;;;;5.47;4.07;;;14.30;99.90;;;;;;4975337;28;20818;-84
2022/06/03 05:20:58;;;;;;;6.67;4.37;;;14.40;99.90;;;;;;4975006;28;20452;-83
2022/06/03 05:24:02;;;;;;;4.87;4.30;;;14.60;99.90;;;;;;4956230;28;20434;-83
2022/06/03 05:27:09;;;;;;;5.70;4.47;;;14.70;99.90;;;;;;4974333;28;20516;-84
2022/06/03 05:29:44;;;;;;;5.70;4.53;;;14.80;99.90;;;;;;4973792;28;20453;-82
2022/06/03 05:32:23;;;;;;;6.10;4.53;;;15.00;99.90;;;;;;4974052;28;20409;-82
2022/06/03 05:35:01;;;;;;;5.80;4.00;;;15.10;99.90;;;;;;4973925;28;20421;-81
2022/06/03 05:37:46;;;;;;;4.13;3.73;;;15.30;99.90;;;;;;4973886;28;20441;-80
2022/06/03 05:40:34;;;;;;;5.40;4.03;;;15.40;99.90;;;;;;4974147;28;20415;-83
2022/06/03 05:43:06;;;;;;;4.53;3.90;;;15.50;99.90;;;;;;4974335;28;20768;-82
2022/06/03 05:45:54;;;;;;;5.67;4.23;;;15.60;99.90;;;;;;4978221;28;20801;-83
2022/06/03 05:48:41;;;;;;;5.40;3.77;;;15.80;99.90;;;;;;4980609;28;20485;-84
2022/06/03 05:51:20;;;;;;;5.07;3.30;;;15.90;99.90;;;;;;4980852;28;20473;-85
2022/06/03 05:53:51;;;;;;;4.70;4.00;;;16.10;99.90;;;;;;4979956;28;20488;-85
2022/06/03 05:56:26;;;;;;;4.47;3.20;;;16.20;99.90;;;;;;4980335;28;20465;-86
2022/06/03 05:59:13;;;;;;;4.10;2.67;;;16.20;99.90;;;;;;4980350;28;20437;-84
2022/06/03 06:02:02;;;;;;;4.53;2.83;;;16.40;99.90;;;;;;4979715;28;20420;-85
2022/06/03 06:04:53;;;;;;;5.73;3.20;;;16.50;99.90;;;;;;4950560;28;20422;-84
2022/06/03 06:07:37;;;;;;;4.20;3.13;;;16.60;99.90;;;;;;4977755;28;20449;-84
2022/06/03 06:10:32;;;;;;;4.93;2.80;;;16.70;99.90;;;;;;4976660;28;20480;-83
2022/06/03 06:13:07;;;;;;;3.37;2.57;;;16.80;99.90;;;;;;4973405;28;20421;-83
2022/06/03 06:16:07;;;;;;;3.10;2.30;;;16.90;99.90;;;;;;4973646;28;20555;-83
2022/06/03 06:18:48;;;;;;;3.33;2.43;;;17.00;99.90;;;;;;4973688;28;20507;-83
2022/06/03 06:21:20;;;;;;;4.10;2.80;;;17.10;99.90;;;;;;4973557;28;20438;-84
2022/06/03 06:23:57;;;;;;;3.70;2.40;;;17.20;99.90;;;;;;4973656;28;20450;-83
2022/06/03 06:26:42;;;;;;;3.23;2.53;;;17.30;99.90;;;;;;4973227;28;20405;-83
2022/06/03 06:29:56;;;;;;;4.00;3.27;;;17.40;99.90;;;;;;4973251;28;20862;-83
2022/06/03 06:32:25;;;;;;;4.70;2.90;;;17.60;99.90;;;;;;4929462;28;20418;-83
2022/06/03 06:35:15;;;;;;;4.30;3.10;;;17.80;99.90;;;;;;4973823;28;20429;-83
2022/06/03 06:37:56;;;;;;;3.93;2.67;;;17.90;99.90;;;;;;4973349;28;20441;-82
2022/06/03 06:40:44;;;;;;;5.60;3.23;;;18.10;99.90;;;;;;4973060;28;20429;-82
2022/06/03 06:43:13;;;;;;;3.33;2.73;;;18.20;99.90;;;;;;4972753;28;20422;-83
2022/06/03 06:45:52;;;;;;;3.57;2.67;;;18.40;99.90;;;;;;4973032;28;20417;-83
2022/06/03 06:48:40;;;;;;;3.90;2.80;;;18.50;99.90;;;;;;4972841;28;20438;-83
2022/06/03 06:51:28;;;;;;;3.60;2.17;;;18.60;99.90;;;;;;4972963;28;20500;-82
2022/06/03 06:54:10;;;;;;;3.90;1.90;;;18.70;99.90;;;;;;4972771;28;20817;-83
2022/06/03 06:56:57;;;;;;;3.00;1.93;;;18.80;99.90;;;;;;4972639;28;20845;-82
2022/06/03 06:59:51;;;;;;;3.17;2.07;;;18.90;99.90;;;;;;4972744;28;20910;-81
2022/06/03 07:02:20;;;;;;;4.00;2.07;;;19.10;99.90;;;;;;4972513;28;20437;-81
2022/06/03 07:05:12;;;;;;;2.60;1.80;;;19.20;99.90;;;;;;4973033;28;20520;-83
2022/06/03 07:07:48;;;;;;;4.00;1.97;;;19.30;99.90;;;;;;4972987;28;20502;-84
2022/06/03 07:10:31;;;;;;;3.33;2.17;;;19.30;99.90;;;;;;4974387;28;20480;-84
2022/06/03 07:13:12;;;;;;;2.97;2.03;;;19.40;99.90;;;;;;4975755;28;20772;-84
2022/06/03 07:16:03;;;;;;;3.30;2.20;;;19.50;99.90;;;;;;4993928;28;20512;-84
2022/06/03 07:21:42;;;;;;;3.90;1.50;;;19.60;99.90;;;;;;4994256;28;20412;-84
2022/06/03 07:24:16;;;;;;;3.90;2.00;;;19.70;99.90;;;;;;4976964;28;20397;-84
2022/06/03 07:26:47;;;;;;;3.13;2.23;;;19.70;99.90;;;;;;4971698;28;20421;-83
2022/06/03 07:29:25;;;;;;;3.43;2.10;;;19.80;99.90;;;;;;4991802;28;20461;-84
2022/06/03 07:32:18;;;;;;;3.13;1.57;;;19.80;99.90;;;;;;4975684;28;20421;-84
2022/06/03 07:35:03;;;;;;;2.67;1.60;;;19.90;99.90;;;;;;4962561;28;20416;-84
2022/06/03 07:37:37;;;;;;;3.07;2.27;;;20.00;99.90;;;;;;4975809;28;20552;-85
2022/06/03 07:40:20;;;;;;;3.20;2.00;;;20.00;99.90;;;;;;4975361;28;20422;-84
2022/06/03 07:42:56;;;;;;;3.03;2.03;;;20.10;99.90;;;;;;4975450;28;20417;-84
2022/06/03 07:45:37;;;;;;;2.80;1.50;;;20.20;99.90;;;;;;4975392;28;20435;-84
2022/06/03 07:48:09;;;;;;;3.07;1.80;;;20.30;99.90;;;;;;4975550;28;20474;-85
2022/06/03 07:50:44;;;;;;;2.80;1.80;;;20.40;99.90;;;;;;4975373;28;20473;-84
2022/06/03 07:53:25;;;;;;;2.60;1.63;;;20.60;99.90;;;;;;4975509;28;20413;-84
2022/06/03 07:55:53;;;;;;;3.13;1.90;;;20.80;99.90;;;;;;4974922;28;20508;-84
2022/06/03 07:58:22;;;;;;;2.83;1.70;;;21.00;99.90;;;;;;4975405;28;20940;-84
2022/06/03 08:00:52;;;;;;;4.00;1.90;;;21.10;99.90;;;;;;4975099;28;20441;-84
2022/06/03 08:03:23;;;;;;;2.80;1.77;;;21.30;99.90;;;;;;4975250;28;20429;-85
2022/06/03 08:06:02;;;;;;;4.07;1.87;;;21.40;99.90;;;;;;4974880;28;20490;-84
2022/06/03 08:11:29;;;;;;;3.07;1.70;;;23.40;99.90;;;;;;4973322;28;20512;-84
2022/06/03 08:13:57;;;;;;;2.60;1.80;;;24.70;99.90;;;;;;4975313;28;21007;-85
2022/06/03 08:16:37;;;;;;;2.50;1.63;;;25.70;92.70;;;;;;4975032;28;20425;-84
2022/06/03 08:19:12;;;;;;;2.33;1.37;;;26.60;87.50;;;;;;4974955;28;20466;-85
2022/06/03 08:21:43;;;;;;;2.87;1.73;;;27.60;81.50;;;;;;4974910;28;20471;-85
2022/06/03 08:24:13;;;;;;;2.83;1.50;;;28.30;77.70;;;;;;4977584;28;20432;-85
2022/06/03 08:26:42;;;;;;;2.70;1.73;;;28.80;75.90;;;;;;4978429;28;20424;-85
2022/06/03 08:29:20;;;;;;;2.93;1.40;;;29.30;67.50;;;;;;4978622;28;20465;-85
2022/06/03 08:31:47;;;;;;;2.40;1.53;;;30.00;64.70;;;;;;4978628;28;20432;-85
2022/06/03 08:34:34;;;;;;;2.20;1.30;;;30.30;60.10;;;;;;4978922;28;20417;-84
2022/06/03 08:37:01;;;;;;;2.40;1.53;;;30.50;56.80;;;;;;4978692;28;20429;-84
2022/06/03 08:39:32;;;;;;;4.73;1.77;;;30.70;56.20;;;;;;4979129;28;20441;-84
2022/06/03 08:42:06;;;;;;;2.73;1.83;;;31.30;55.40;;;;;;4978739;28;20846;-84
2022/06/03 08:44:50;;;;;;;2.50;1.70;;;32.00;53.90;;;;;;4978812;28;20425;-84
2022/06/03 08:47:25;;;;;;;2.50;1.57;;;32.70;53.20;;;;;;4979308;28;20451;-84
2022/06/03 08:50:01;;;;;;;5.10;1.60;;;32.80;49.70;;;;;;4979524;28;20456;-85
2022/06/03 08:52:45;;;;;;;3.00;1.73;;;33.30;47.40;;;;;;4978971;28;20926;-84
2022/06/03 08:55:46;;;;;;;2.37;1.40;;;33.90;48.80;;;;;;4978599;28;20425;-84
2022/06/03 08:58:25;;;;;;;2.53;1.60;;;34.00;47.10;;;;;;4979018;28;20455;-84
2022/06/03 09:00:59;;;;;;;2.73;1.60;;;34.40;47.30;;;;;;4978514;28;20420;-84
2022/06/03 09:03:30;;;;;;;2.90;1.80;;;34.60;44.50;;;;;;4978451;28;20432;-84
2022/06/03 09:06:11;;;;;;;2.80;1.30;;;35.20;43.20;;;;;;4978132;28;20424;-84
2022/06/03 09:08:58;;;;;;;2.40;1.63;;;35.60;42.00;;;;;;4978432;28;20595;-84
2022/06/03 09:11:41;;;;;;;2.20;1.30;;;35.80;40.20;;;;;;4978368;28;20429;-84
2022/06/03 09:14:12;;;;;;;2.90;1.50;;;35.30;40.50;;;;;;4978226;28;20413;-85
2022/06/03 09:16:40;;;;;;;3.20;1.53;;;35.10;41.20;;;;;;4977799;28;20464;-84
2022/06/03 09:19:19;;;;;;;2.40;1.50;;;34.80;41.10;;;;;;4977995;28;20841;-84
2022/06/03 09:21:51;;;;;;;2.70;1.50;;;34.30;41.80;;;;;;4978425;28;20920;-83
2022/06/03 09:24:26;;;;;;;3.83;1.60;;;33.60;40.50;;;;;;4977915;28;20571;-84
2022/06/03 09:26:59;;;;;;;4.20;1.60;;;33.50;41.20;;;;;;4977803;28;20527;-84
2022/06/03 09:29:25;;;;;;;2.97;2.00;;;33.60;40.20;;;;;;4977670;28;20619;-83
2022/06/03 09:32:04;;;;;;;3.00;1.93;;;33.40;41.00;;;;;;4977490;28;20546;-84
2022/06/03 09:34:43;;;;;;;2.70;1.77;;;33.10;40.80;;;;;;4977156;28;20425;-84
2022/06/03 09:37:31;;;;;;;3.20;1.90;;;32.50;39.90;;;;;;4977354;28;20503;-83
2022/06/03 09:39:59;;;;;;;2.77;1.90;;;32.20;42.40;;;;;;4977784;28;20435;-84
2022/06/03 09:42:29;;;;;;;2.70;1.90;;;32.20;41.90;;;;;;4977501;28;20952;-83
2022/06/03 09:44:56;;;;;;;3.00;1.73;;;32.30;41.70;;;;;;4977398;28;20459;-84
2022/06/03 09:47:23;;;;;;;2.97;2.00;;;32.90;42.70;;;;;;4977235;28;20584;-84
2022/06/03 09:49:52;;;;;;;3.10;2.40;;;33.10;42.00;;;;;;4977398;28;20995;-84
2022/06/03 09:52:23;;;;;;;3.63;1.93;;;33.50;43.20;;;;;;4977149;28;20493;-84
2022/06/03 09:54:51;;;;;;;3.17;1.70;;;34.90;41.50;;;;;;4977103;28;20432;-84
2022/06/03 09:57:33;;;;;;;2.40;1.50;;;35.80;40.50;;;;;;4976633;28;20814;-84
2022/06/03 10:00:23;;;;;;;2.80;1.60;;;35.80;40.60;;;;;;4977126;28;20437;-84
2022/06/03 10:02:49;;;;;;;2.50;1.50;;;36.50;39.20;;;;;;4976801;28;20476;-84
2022/06/03 10:05:17;;;;;;;2.50;1.50;;;37.80;41.00;;;;;;4976627;28;20477;-84
2022/06/03 10:07:52;;;;;;;3.10;1.73;;;38.30;37.80;;;;;;4976531;28;20824;-84
2022/06/03 10:13:06;;;;;;;2.50;1.80;;;36.70;37.30;;;;;;4994639;28;20424;-84
2022/06/03 10:15:41;;;;;;;2.00;1.30;;;36.90;36.70;;;;;;4976623;28;20425;-84
2022/06/03 10:18:22;;;;;;;3.60;1.80;;;36.50;37.10;;;;;;4976507;28;20444;-84
2022/06/03 10:20:52;;;;;;;2.30;1.60;;;35.80;38.60;;;;;;4976653;28;20440;-84
2022/06/03 10:23:24;;;;;;;2.20;1.30;;;35.60;37.50;;;;;;4976383;28;20421;-84
2022/06/03 10:25:51;;;;;;;2.17;1.37;;;35.20;38.70;;;;;;4976187;28;20437;-84
2022/06/03 10:28:18;;;;;;;3.73;1.80;;;34.60;39.20;;;;;;4976260;28;20480;-84
2022/06/03 10:30:44;;;;;;;2.50;1.57;;;34.10;38.90;;;;;;4992548;28;20472;-84
2022/06/03 10:33:19;;;;;;;2.97;1.63;;;33.60;38.80;;;;;;4976484;28;20516;-84
2022/06/03 10:35:46;;;;;;;2.53;1.40;;;33.80;41.40;;;;;;4976403;28;20421;-84
2022/06/03 10:38:19;;;;;;;2.40;1.67;;;33.60;39.40;;;;;;4975796;28;20445;-84
2022/06/03 10:40:52;;;;;;;3.80;1.90;;;33.10;40.40;;;;;;4976263;28;20436;-84
2022/06/03 10:43:30;;;;;;;2.70;1.57;;;32.90;40.50;;;;;;4992027;28;20928;-84
2022/06/03 10:46:10;;;;;;;3.70;2.03;;;32.90;42.20;;;;;;4975690;28;20448;-84
2022/06/03 10:48:36;;;;;;;2.47;1.77;;;32.70;41.00;;;;;;4975614;28;20452;-84
2022/06/03 10:51:18;;;;;;;2.50;1.40;;;32.30;41.90;;;;;;4991922;28;20798;-84
2022/06/03 11:02:30;;;;;;;3.23;1.60;;;30.30;44.00;;;;;;4993567;28;20427;-84
2022/06/03 11:05:25;;;;;;;2.90;1.70;;;29.90;44.00;;;;;;4991852;28;20547;-84
2022/06/03 11:08:07;;;;;;;2.67;1.60;;;29.60;44.50;;;;;;4975927;28;20454;-83
2022/06/03 11:10:42;;;;;;;2.50;1.63;;;29.90;45.00;;;;;;4987340;28;20477;-84
2022/06/03 11:13:10;;;;;;;2.60;1.70;;;29.90;44.20;;;;;;4975738;28;20785;-84
2022/06/03 11:15:40;;;;;;;2.80;1.70;;;30.10;46.00;;;;;;4975342;28;20455;-84
2022/06/03 11:18:21;;;;;;;2.70;1.70;;;30.10;43.70;;;;;;4975375;28;20437;-84
2022/06/03 11:20:50;;;;;;;2.50;1.80;;;30.20;44.90;;;;;;4975466;28;20440;-84
2022/06/03 11:23:17;;;;;;;2.50;1.83;;;30.20;45.50;;;;;;4975540;28;20491;-84
2022/06/03 11:26:01;;;;;;;2.20;1.47;;;30.10;45.00;;;;;;4975195;28;20420;-84
2022/06/03 11:28:32;;;;;;;2.87;1.90;;;29.90;45.90;;;;;;4991322;28;20449;-84
2022/06/03 11:31:17;;;;;;;3.03;1.97;;;29.90;46.10;;;;;;4975378;28;20885;-84
2022/06/03 11:34:04;;;;;;;2.53;1.83;;;29.90;47.20;;;;;;4975531;28;20500;-83
2022/06/03 11:36:38;;;;;;;2.70;1.83;;;29.80;47.20;;;;;;4975259;28;20503;-84
2022/06/03 11:39:13;;;;;;;3.00;2.23;;;29.70;48.00;;;;;;4975347;28;20583;-83
2022/06/03 11:41:52;;;;;;;3.07;2.10;;;29.60;46.60;;;;;;4975573;28;20421;-83
2022/06/03 11:44:35;;;;;;;2.60;2.00;;;29.70;46.90;;;;;;4975115;28;20424;-84
2022/06/03 11:47:12;;;;;;;2.60;1.80;;;29.70;46.20;;;;;;4974974;28;20421;-84
2022/06/03 11:49:38;;;;;;;3.00;1.63;;;29.60;47.60;;;;;;4975065;28;21007;-83
2022/06/03 11:52:04;;;;;;;2.63;1.83;;;29.60;47.00;;;;;;4975335;28;20425;-84
2022/06/03 11:54:31;;;;;;;2.60;1.90;;;29.70;46.10;;;;;;4975348;28;20177;-84
2022/06/03 11:57:00;;;;;;;2.57;2.17;;;29.60;45.10;;;;;;4974874;28;20425;-84
2022/06/03 11:59:26;;;;;;;3.93;1.90;;;29.60;45.80;;;;;;4978117;28;20482;-84
2022/06/03 12:01:56;;;;;;;3.10;1.73;;;29.50;48.10;;;;;;4978858;28;20914;-85
2022/06/03 12:04:41;;;;;;;2.43;1.70;;;29.60;48.80;;;;;;4979270;28;20189;-84
2022/06/03 12:07:16;;;;;;;2.60;1.70;;;29.60;48.70;;;;;;4978910;28;20452;-84
2022/06/03 12:09:45;;;;;;;2.50;1.60;;;29.90;47.80;;;;;;4978986;28;20888;-84
2022/06/03 12:15:31;;;;;;;2.80;1.60;;;30.30;48.00;;;;;;4996542;28;20419;-85
2022/06/03 12:18:17;;;;;;;4.00;1.90;;;30.50;47.20;;;;;;4996160;28;20436;-84
2022/06/03 12:20:47;;;;;;;2.53;1.60;;;30.60;48.40;;;;;;4929894;28;20491;-84
2022/06/03 12:23:13;;;;;;;2.63;1.73;;;30.60;48.10;;;;;;4978707;28;20425;-84
2022/06/03 12:25:51;;;;;;;3.10;1.90;;;30.60;47.60;;;;;;4978704;28;20920;-84
2022/06/03 12:28:42;;;;;;;2.60;1.70;;;30.60;48.10;;;;;;4978467;28;20251;-84
2022/06/03 12:31:20;;;;;;;2.30;1.60;;;30.60;47.30;;;;;;4978498;28;20963;-84
2022/06/03 12:33:58;;;;;;;2.80;2.00;;;30.60;46.40;;;;;;4978811;28;20424;-84
2022/06/03 12:36:33;;;;;;;3.80;1.90;;;30.60;46.70;;;;;;4978175;28;20424;-84
2022/06/03 12:39:07;;;;;;;2.40;1.70;;;30.40;46.60;;;;;;4978415;28;20465;-85
2022/06/03 12:41:45;;;;;;;2.90;1.87;;;30.30;47.40;;;;;;4978291;28;20440;-83
2022/06/03 12:44:34;;;;;;;2.80;1.70;;;30.30;47.40;;;;;;4978152;28;20440;-84
2022/06/03 12:47:18;;;;;;;2.50;1.70;;;30.30;47.80;;;;;;4978018;28;20428;-84
2022/06/03 12:49:44;;;;;;;2.73;1.70;;;30.30;46.20;;;;;;4978368;28;20490;-84
2022/06/03 12:52:35;;;;;;;3.53;2.10;;;30.10;46.20;;;;;;4978366;28;20499;-84
2022/06/03 12:55:13;;;;;;;2.63;1.63;;;30.30;48.00;;;;;;4978157;28;20190;-84
2022/06/03 12:57:39;;;;;;;2.93;1.87;;;30.60;47.50;;;;;;4978370;28;21037;-84
2022/06/03 13:00:07;;;;;;;2.60;1.80;;;30.70;46.00;;;;;;4977982;28;20436;-84
2022/06/03 13:02:52;;;;;;;2.57;1.90;;;30.80;48.10;;;;;;4977973;28;20206;-85
2022/06/03 13:05:44;;;;;;;2.67;1.90;;;30.70;47.90;;;;;;4977913;28;20804;-84
2022/06/03 13:08:28;;;;;;;3.00;2.00;;;30.10;49.00;;;;;;4977831;28;20488;-84
2022/06/03 13:11:06;;;;;;;4.93;2.13;;;29.90;49.70;;;;;;4977813;28;20744;-83
2022/06/03 13:13:35;;;;;;;5.80;2.40;;;29.80;50.20;;;;;;4977853;28;20427;-83
2022/06/03 13:16:39;;;;;;;3.13;2.00;;;29.60;50.90;;;;;;4977518;28;20856;-84
2022/06/03 13:19:14;;;;;;;2.90;1.97;;;29.50;51.60;;;;;;4964869;28;20599;-83
2022/06/03 13:21:59;;;;;;;2.77;2.07;;;29.50;51.60;;;;;;4977614;28;20519;-83
2022/06/03 13:24:30;;;;;;;2.93;2.13;;;29.70;52.50;;;;;;4977698;28;20416;-83
2022/06/03 13:27:25;;;;;;;2.50;1.87;;;30.00;51.40;;;;;;4977673;28;20932;-84
2022/06/03 13:29:55;;;;;;;3.87;2.40;;;30.30;53.50;;;;;;4977483;28;20535;-84
2022/06/03 13:32:36;;;;;;;4.03;2.03;;;30.40;52.30;;;;;;4977836;28;20503;-83
2022/06/03 13:35:10;;;;;;;3.20;2.30;;;30.40;51.80;;;;;;4977593;28;20461;-83
2022/06/03 13:38:22;;;;;;;2.97;2.20;;;30.20;51.10;;;;;;4977427;28;20487;-84
2022/06/03 13:43:33;;;;;;;2.73;2.10;;;30.20;51.10;;;;;;4995076;28;20424;-84
2022/06/03 13:46:07;;;;;;;4.73;2.30;;;30.20;51.40;;;;;;4977364;28;21205;-83
2022/06/03 13:48:45;;;;;;;3.23;2.50;;;30.10;51.90;;;;;;4977631;28;20448;-84
2022/06/03 13:51:29;;;;;;;3.37;2.03;;;29.90;51.10;;;;;;4977095;28;20436;-84
2022/06/03 13:54:05;;;;;;;2.60;2.00;;;30.20;51.60;;;;;;4977245;28;20421;-84
2022/06/03 13:56:31;;;;;;;3.27;2.50;;;30.50;53.50;;;;;;4976948;28;20705;-84
2022/06/03 13:58:59;;;;;;;3.10;2.30;;;30.60;56.60;;;;;;4976968;28;20436;-84
2022/06/03 14:01:44;;;;;;;3.10;2.23;;;30.70;56.40;;;;;;4976938;28;20508;-85
2022/06/03 14:04:24;;;;;;;4.70;2.13;;;30.80;55.70;;;;;;4977003;28;21019;-84
2022/06/03 14:07:04;;;;;;;3.20;2.53;;;30.80;55.40;;;;;;4976733;28;20417;-84
2022/06/03 14:09:33;;;;;;;2.90;2.30;;;30.80;55.90;;;;;;4976989;28;20847;-84
2022/06/03 14:12:08;;;;;;;3.30;2.40;;;30.90;56.20;;;;;;4976834;28;20429;-84
2022/06/03 14:14:56;;;;;;;3.30;2.40;;;30.70;56.20;;;;;;4976554;28;20463;-84
2022/06/03 14:17:45;;;;;;;3.00;2.40;;;30.90;53.60;;;;;;4976515;28;20875;-84
2022/06/03 14:20:26;;;;;;;3.47;2.27;;;30.80;55.50;;;;;;4979355;28;20447;-84
2022/06/03 14:22:58;;;;;;;3.30;2.10;;;30.90;54.50;;;;;;4976268;28;20472;-84
2022/06/03 14:25:39;;;;;;;3.97;2.20;;;31.00;55.00;;;;;;4976526;28;20524;-85
2022/06/03 14:28:09;;;;;;;3.10;1.80;;;31.60;53.60;;;;;;4993944;28;20464;-85